Flight Track Log - Related Links

Times and Time Zones

All times are in EDT time to prevent confusion due to time zone crossing. See the DAL6234 flight status page for this flight to view local times or setup timezone preferences in your user account.

Time Position Orientation Groundspeed Altitude Reporting Facility
EDT Latitude Longitude Course Direction KTS MPH feet Rate Location/Type
Thu 04:56:16 PM 40.7667 -73.8500 153° Southeast 141 162 1,400  Level New York TRACON
Thu 04:57:22 PM 40.7167 -73.8167 153° Southeast 208 239 3,200 1,714 Climbing New York TRACON
Thu 04:58:22 PM 40.7667 -73.7500 45° Northeast 292 336 5,000 2,250 Climbing New York TRACON
Thu 04:59:22 PM 40.8333 -73.8000 330° Northwest 283 326 7,700 1,500 Climbing New York TRACON
Thu 05:00:22 PM 40.8667 -73.8833 298° West 271 312 8,000 1,719 Climbing New York TRACON
Thu 05:02:34 PM 40.9611 -74.0794 303° West 294 338 13,200 2,145 Climbing New York Center
Thu 05:03:35 PM 41.0067 -74.1642 305° West 307 353 14,900 934 Climbing New York Center
Thu 05:04:36 PM 41.0600 -74.2603 306° West 325 374 15,100 555 Climbing New York Center
Thu 05:05:34 PM 41.1133 -74.3622 305° West 316 364 16,000 458 Climbing New York Center
Thu 05:06:34 PM 41.1586 -74.4472 305° West 316 364 16,000  Level New York Center
Thu 05:07:36 PM 41.2136 -74.5497 306° West 316 364 16,000 900 Level New York Center
Thu 05:08:34 PM 41.2650 -74.6381 308° West 327 376 17,800 1,815 Climbing New York Center
Thu 05:09:35 PM 41.3219 -74.7353 308° West 333 383 19,600 1,869 Climbing New York Center
Thu 05:10:36 PM 41.3856 -74.8303 312° West 333 383 21,600 1,190 Climbing New York Center
Thu 05:11:36 PM 41.4508 -74.9311 311° West 345 397 22,000 200 Climbing New York Center
Thu 05:12:36 PM 41.5097 -75.0289 309° West 345 397 22,000  Level New York Center
Thu 05:13:36 PM 41.5689 -75.1214 311° West 340 391 22,000  Level New York Center
Thu 05:14:35 PM 41.6256 -75.2194 308° West 340 391 22,000  Level New York Center
Thu 05:15:35 PM 41.6822 -75.3175 308° West 335 386 22,000  Level New York Center
Thu 05:16:35 PM 41.7389 -75.4131 308° West 335 386 22,000  Level New York Center
Thu 05:17:35 PM 41.8033 -75.5233 308° West 335 386 22,000  Level New York Center
Thu 05:18:34 PM 41.8619 -75.6194 309° West 335 386 22,000  Level New York Center
Thu 05:19:35 PM 41.9181 -75.7183 307° West 335 386 22,000  Level New York Center
Thu 05:20:35 PM 41.9764 -75.8175 308° West 335 386 22,000 -595 Level New York Center
Thu 05:21:36 PM 42.0344 -75.9197 307° West 335 386 20,800 -1,550 Descending New York Center
Thu 05:22:35 PM 42.0883 -76.0189 306° West 335 386 18,900 -1,881 Descending New York Center
Thu 05:23:34 PM 42.1489 -76.1106 312° West 335 386 17,100 -1,664 Descending New York Center
Thu 05:24:34 PM 42.2378 -76.1261 353° North 308 354 15,600 -1,289 Descending New York Center
Thu 05:25:35 PM 42.3256 -76.1192 North 311 358 14,500 -1,190 Descending New York Center
Thu 05:26:35 PM 42.4153 -76.1097 North 322 371 13,200 -1,462 Descending New York Center
Thu 05:26:53 PM 42.4539 -76.1014 North 326 375 12,600 -1,250 Descending Boston Center
Thu 05:27:23 PM 42.4914 -76.1008 North 317 365 12,200 -933 Descending Boston Center
Thu 05:28:23 PM 42.5772 -76.0919 North 311 358 11,200 -1,041 Descending Boston Center
Thu 05:29:24 PM 42.6672 -76.0803 North 319 367 10,100 -1,240 Descending Boston Center
Thu 05:30:24 PM 42.7542 -76.1022 350° North 293 337 8,700 -1,388 Descending Boston Center
Thu 05:31:25 PM 42.8328 -76.1211 350° North 282 325 7,300 -1,328 Descending Boston Center
Thu 05:32:26 PM 42.8933 -76.1814 324° Northwest 266 306 6,000 -1,289 Descending Boston Center
Thu 05:33:26 PM 42.9581 -76.2450 324° Northwest 279 321 4,700 -984 Descending Boston Center
Thu 05:34:28 PM 43.0208 -76.2944 330° Northwest 262 302 4,000 -443 Descending Boston Center
Thu 05:35:28 PM 43.0833 -76.3011 356° North 240 276 3,800 -397 Descending Boston Center
Thu 05:36:29 PM 43.1433 -76.2508 31° Northeast 251 289 3,200 -836 Descending Boston Center
Thu 05:37:30 PM 43.1744 -76.1928 54° Northeast 176 203 2,100 -992 Descending Boston Center
Thu 05:38:30 PM 43.1483 -76.1600 138° Southeast 106 122 1,200 -900 Descending Boston Center

Login

Don't have an account? Register now (free) for customized features, flight alerts, and more!